sensor_id;sensor_type;location;lat;lon;timestamp;temperature;humidity
24103;DHT22;12278;53.058;9.028;2024-01-10T00:01:03;-5.50;99.90
24103;DHT22;12278;53.058;9.028;2024-01-10T00:05:04;-5.50;99.90
24103;DHT22;12278;53.058;9.028;2024-01-10T00:09:05;-5.50;99.90
24103;DHT22;12278;53.058;9.028;2024-01-10T00:13:05;-5.40;99.90
24103;DHT22;12278;53.058;9.028;2024-01-10T00:17:06;-5.50;99.90
24103;DHT22;12278;53.058;9.028;2024-01-10T00:21:07;-5.60;99.90
24103;DHT22;12278;53.058;9.028;2024-01-10T00:25:07;-5.60;99.90
24103;DHT22;12278;53.058;9.028;2024-01-10T00:29:08;-5.60;99.90
24103;DHT22;12278;53.058;9.028;2024-01-10T00:33:08;-5.60;99.90
24103;DHT22;12278;53.058;9.028;2024-01-10T00:37:09;-5.70;99.90
24103;DHT22;12278;53.058;9.028;2024-01-10T00:41:09;-5.70;99.90
24103;DHT22;12278;53.058;9.028;2024-01-10T00:45:12;-5.70;99.90
24103;DHT22;12278;53.058;9.028;2024-01-10T00:49:12;-5.90;99.90
24103;DHT22;12278;53.058;9.028;2024-01-10T00:53:13;-5.80;99.90
24103;DHT22;12278;53.058;9.028;2024-01-10T00:57:13;-5.90;99.90
24103;DHT22;12278;53.058;9.028;2024-01-10T01:01:14;-5.80;99.90
24103;DHT22;12278;53.058;9.028;2024-01-10T01:05:15;-5.90;99.90
24103;DHT22;12278;53.058;9.028;2024-01-10T01:09:15;-5.90;99.90
24103;DHT22;12278;53.058;9.028;2024-01-10T01:13:16;-5.80;99.90
24103;DHT22;12278;53.058;9.028;2024-01-10T01:17:17;-5.80;99.90
24103;DHT22;12278;53.058;9.028;2024-01-10T01:21:17;-5.80;99.90
24103;DHT22;12278;53.058;9.028;2024-01-10T01:25:18;-5.70;99.90
24103;DHT22;12278;53.058;9.028;2024-01-10T01:29:19;-5.80;99.90
24103;DHT22;12278;53.058;9.028;2024-01-10T01:33:20;-5.80;99.90
24103;DHT22;12278;53.058;9.028;2024-01-10T01:37:20;-5.80;99.90
24103;DHT22;12278;53.058;9.028;2024-01-10T01:41:21;-5.80;99.90
24103;DHT22;12278;53.058;9.028;2024-01-10T01:45:21;-5.80;99.90
24103;DHT22;12278;53.058;9.028;2024-01-10T01:49:22;-5.90;99.90
24103;DHT22;12278;53.058;9.028;2024-01-10T01:53:23;-5.90;99.90
24103;DHT22;12278;53.058;9.028;2024-01-10T01:57:24;-5.90;99.90
24103;DHT22;12278;53.058;9.028;2024-01-10T02:01:24;-5.90;99.90
24103;DHT22;12278;53.058;9.028;2024-01-10T02:05:25;-5.90;99.90
24103;DHT22;12278;53.058;9.028;2024-01-10T02:09:26;-5.90;99.90
24103;DHT22;12278;53.058;9.028;2024-01-10T02:13:27;-5.90;99.90
24103;DHT22;12278;53.058;9.028;2024-01-10T02:17:28;-5.90;99.90
24103;DHT22;12278;53.058;9.028;2024-01-10T02:21:28;-6.00;99.90
24103;DHT22;12278;53.058;9.028;2024-01-10T02:25:29;-6.00;99.90
24103;DHT22;12278;53.058;9.028;2024-01-10T02:29:30;-5.90;99.90
24103;DHT22;12278;53.058;9.028;2024-01-10T02:33:31;-5.80;99.90
24103;DHT22;12278;53.058;9.028;2024-01-10T02:37:32;-5.80;99.90
24103;DHT22;12278;53.058;9.028;2024-01-10T02:41:32;-5.90;99.90
24103;DHT22;12278;53.058;9.028;2024-01-10T02:45:33;-5.90;99.90
24103;DHT22;12278;53.058;9.028;2024-01-10T02:49:34;-5.80;99.90
24103;DHT22;12278;53.058;9.028;2024-01-10T02:53:34;-5.70;99.90
24103;DHT22;12278;53.058;9.028;2024-01-10T02:57:35;-5.70;99.90
24103;DHT22;12278;53.058;9.028;2024-01-10T03:01:35;-5.70;99.90
24103;DHT22;12278;53.058;9.028;2024-01-10T03:05:36;-5.70;99.90
24103;DHT22;12278;53.058;9.028;2024-01-10T03:09:36;-5.70;99.90
24103;DHT22;12278;53.058;9.028;2024-01-10T03:13:37;-5.70;99.90
24103;DHT22;12278;53.058;9.028;2024-01-10T03:17:39;-5.70;99.90
24103;DHT22;12278;53.058;9.028;2024-01-10T03:21:39;-5.60;99.90
24103;DHT22;12278;53.058;9.028;2024-01-10T03:25:40;-5.70;99.90
24103;DHT22;12278;53.058;9.028;2024-01-10T03:29:41;-5.80;99.90
24103;DHT22;12278;53.058;9.028;2024-01-10T03:33:41;-5.80;99.90
24103;DHT22;12278;53.058;9.028;2024-01-10T03:37:42;-5.90;99.90
24103;DHT22;12278;53.058;9.028;2024-01-10T03:41:42;-5.90;99.90
24103;DHT22;12278;53.058;9.028;2024-01-10T03:45:43;-5.80;99.90
24103;DHT22;12278;53.058;9.028;2024-01-10T03:49:44;-5.80;99.90
24103;DHT22;12278;53.058;9.028;2024-01-10T03:53:45;-5.80;99.90
24103;DHT22;12278;53.058;9.028;2024-01-10T03:57:45;-5.70;99.90
24103;DHT22;12278;53.058;9.028;2024-01-10T04:01:46;-5.80;99.90
24103;DHT22;12278;53.058;9.028;2024-01-10T04:05:46;-5.90;99.90
24103;DHT22;12278;53.058;9.028;2024-01-10T04:09:47;-5.90;99.90
24103;DHT22;12278;53.058;9.028;2024-01-10T04:13:47;-5.90;99.90
24103;DHT22;12278;53.058;9.028;2024-01-10T04:17:48;-5.90;99.90
24103;DHT22;12278;53.058;9.028;2024-01-10T04:21:48;-5.90;99.90
24103;DHT22;12278;53.058;9.028;2024-01-10T04:25:49;-6.00;99.90
24103;DHT22;12278;53.058;9.028;2024-01-10T04:29:49;-6.10;99.90
24103;DHT22;12278;53.058;9.028;2024-01-10T04:33:50;-6.20;99.90
24103;DHT22;12278;53.058;9.028;2024-01-10T04:37:50;-6.10;99.90
24103;DHT22;12278;53.058;9.028;2024-01-10T04:41:51;-6.10;99.90
24103;DHT22;12278;53.058;9.028;2024-01-10T04:45:51;-6.00;99.90
24103;DHT22;12278;53.058;9.028;2024-01-10T04:49:52;-5.90;99.90
24103;DHT22;12278;53.058;9.028;2024-01-10T04:53:52;-5.90;99.90
24103;DHT22;12278;53.058;9.028;2024-01-10T04:57:53;-5.90;99.90
24103;DHT22;12278;53.058;9.028;2024-01-10T05:01:53;-5.90;99.90
24103;DHT22;12278;53.058;9.028;2024-01-10T05:05:54;-5.80;99.90
24103;DHT22;12278;53.058;9.028;2024-01-10T05:09:55;-5.60;99.90
24103;DHT22;12278;53.058;9.028;2024-01-10T05:13:56;-5.40;99.90
24103;DHT22;12278;53.058;9.028;2024-01-10T05:17:56;-5.30;99.90
24103;DHT22;12278;53.058;9.028;2024-01-10T05:21:57;-5.20;99.90
24103;DHT22;12278;53.058;9.028;2024-01-10T05:25:57;-5.10;99.90
24103;DHT22;12278;53.058;9.028;2024-01-10T05:29:58;-5.10;99.90
24103;DHT22;12278;53.058;9.028;2024-01-10T05:33:59;-5.00;99.90
24103;DHT22;12278;53.058;9.028;2024-01-10T05:38:00;-5.00;99.90
24103;DHT22;12278;53.058;9.028;2024-01-10T05:42:00;-5.00;99.90
24103;DHT22;12278;53.058;9.028;2024-01-10T05:46:03;-5.00;99.90
24103;DHT22;12278;53.058;9.028;2024-01-10T05:50:05;-5.00;99.90
24103;DHT22;12278;53.058;9.028;2024-01-10T05:54:06;-5.00;99.90
24103;DHT22;12278;53.058;9.028;2024-01-10T05:58:07;-5.00;99.90
24103;DHT22;12278;53.058;9.028;2024-01-10T06:02:09;-5.00;99.90
24103;DHT22;12278;53.058;9.028;2024-01-10T06:06:10;-4.90;99.90
24103;DHT22;12278;53.058;9.028;2024-01-10T06:10:11;-4.90;99.90
24103;DHT22;12278;53.058;9.028;2024-01-10T06:14:12;-4.90;99.90
24103;DHT22;12278;53.058;9.028;2024-01-10T06:18:12;-4.90;99.90
24103;DHT22;12278;53.058;9.028;2024-01-10T06:22:13;-4.90;99.90
24103;DHT22;12278;53.058;9.028;2024-01-10T06:26:13;-5.00;99.90
24103;DHT22;12278;53.058;9.028;2024-01-10T06:30:14;-5.00;99.90
24103;DHT22;12278;53.058;9.028;2024-01-10T06:34:15;-5.00;99.90
24103;DHT22;12278;53.058;9.028;2024-01-10T06:38:15;-5.00;99.90
24103;DHT22;12278;53.058;9.028;2024-01-10T06:42:17;-5.20;99.90
24103;DHT22;12278;53.058;9.028;2024-01-10T06:46:18;-5.10;99.90
24103;DHT22;12278;53.058;9.028;2024-01-10T06:50:18;-5.10;99.90
24103;DHT22;12278;53.058;9.028;2024-01-10T06:54:20;-5.10;99.90
24103;DHT22;12278;53.058;9.028;2024-01-10T06:58:21;-5.20;99.90
24103;DHT22;12278;53.058;9.028;2024-01-10T07:02:23;-5.30;99.90
24103;DHT22;12278;53.058;9.028;2024-01-10T07:06:24;-5.30;99.90
24103;DHT22;12278;53.058;9.028;2024-01-10T07:10:24;-5.30;99.90
24103;DHT22;12278;53.058;9.028;2024-01-10T07:14:28;-5.30;99.90
24103;DHT22;12278;53.058;9.028;2024-01-10T07:18:29;-5.30;99.90
24103;DHT22;12278;53.058;9.028;2024-01-10T07:22:30;-5.20;99.90
24103;DHT22;12278;53.058;9.028;2024-01-10T07:26:31;-5.20;99.90
24103;DHT22;12278;53.058;9.028;2024-01-10T07:30:31;-5.20;99.90
24103;DHT22;12278;53.058;9.028;2024-01-10T07:34:33;-5.10;99.90
24103;DHT22;12278;53.058;9.028;2024-01-10T07:38:34;-5.20;99.90
24103;DHT22;12278;53.058;9.028;2024-01-10T07:42:34;-5.20;99.90
24103;DHT22;12278;53.058;9.028;2024-01-10T07:46:35;-5.10;99.90
24103;DHT22;12278;53.058;9.028;2024-01-10T07:50:38;-5.10;99.90
24103;DHT22;12278;53.058;9.028;2024-01-10T07:54:39;-5.20;99.90
24103;DHT22;12278;53.058;9.028;2024-01-10T07:58:39;-5.10;99.90
24103;DHT22;12278;53.058;9.028;2024-01-10T08:02:40;-5.10;99.90
24103;DHT22;12278;53.058;9.028;2024-01-10T08:06:40;-5.00;99.90
24103;DHT22;12278;53.058;9.028;2024-01-10T08:10:42;-5.00;99.90
24103;DHT22;12278;53.058;9.028;2024-01-10T08:14:43;-5.00;99.90
24103;DHT22;12278;53.058;9.028;2024-01-10T08:18:46;-4.90;99.90
24103;DHT22;12278;53.058;9.028;2024-01-10T08:22:47;-4.80;99.90
24103;DHT22;12278;53.058;9.028;2024-01-10T08:26:48;-4.50;99.90
24103;DHT22;12278;53.058;9.028;2024-01-10T08:30:52;-4.00;99.90
24103;DHT22;12278;53.058;9.028;2024-01-10T08:34:58;-3.60;99.90
24103;DHT22;12278;53.058;9.028;2024-01-10T08:38:59;-3.30;99.90
24103;DHT22;12278;53.058;9.028;2024-01-10T08:43:04;-2.60;99.90
24103;DHT22;12278;53.058;9.028;2024-01-10T08:47:04;-1.70;99.90
24103;DHT22;12278;53.058;9.028;2024-01-10T08:51:05;-0.50;99.90
24103;DHT22;12278;53.058;9.028;2024-01-10T08:55:10;0.80;99.90
24103;DHT22;12278;53.058;9.028;2024-01-10T08:59:11;1.70;99.90
24103;DHT22;12278;53.058;9.028;2024-01-10T09:03:12;2.30;99.80
24103;DHT22;12278;53.058;9.028;2024-01-10T09:07:13;2.40;98.00
24103;DHT22;12278;53.058;9.028;2024-01-10T09:11:14;2.40;98.10
24103;DHT22;12278;53.058;9.028;2024-01-10T09:15:14;2.70;97.60
24103;DHT22;12278;53.058;9.028;2024-01-10T09:19:15;3.00;96.30
24103;DHT22;12278;53.058;9.028;2024-01-10T09:23:16;3.50;95.40
24103;DHT22;12278;53.058;9.028;2024-01-10T09:27:16;3.70;93.40
24103;DHT22;12278;53.058;9.028;2024-01-10T09:31:17;3.60;93.10
24103;DHT22;12278;53.058;9.028;2024-01-10T09:35:18;3.10;93.90
24103;DHT22;12278;53.058;9.028;2024-01-10T09:39:18;3.20;93.60
24103;DHT22;12278;53.058;9.028;2024-01-10T09:43:19;3.30;93.20
24103;DHT22;12278;53.058;9.028;2024-01-10T09:47:20;3.40;92.90
24103;DHT22;12278;53.058;9.028;2024-01-10T09:51:20;3.30;93.50
24103;DHT22;12278;53.058;9.028;2024-01-10T09:55:22;2.80;93.40
24103;DHT22;12278;53.058;9.028;2024-01-10T09:59:23;2.70;93.90
24103;DHT22;12278;53.058;9.028;2024-01-10T10:03:24;2.50;93.90
24103;DHT22;12278;53.058;9.028;2024-01-10T10:07:24;2.40;94.40
24103;DHT22;12278;53.058;9.028;2024-01-10T10:11:26;2.50;93.70
24103;DHT22;12278;53.058;9.028;2024-01-10T10:15:26;2.70;93.50
24103;DHT22;12278;53.058;9.028;2024-01-10T10:19:27;2.80;93.90
24103;DHT22;12278;53.058;9.028;2024-01-10T10:23:27;3.10;93.90
24103;DHT22;12278;53.058;9.028;2024-01-10T10:27:28;3.30;92.80
24103;DHT22;12278;53.058;9.028;2024-01-10T10:31:29;3.40;92.90
24103;DHT22;12278;53.058;9.028;2024-01-10T10:35:32;3.50;93.20
24103;DHT22;12278;53.058;9.028;2024-01-10T10:39:33;3.50;91.50
24103;DHT22;12278;53.058;9.028;2024-01-10T10:43:38;3.30;91.60
24103;DHT22;12278;53.058;9.028;2024-01-10T10:47:40;3.60;91.50
24103;DHT22;12278;53.058;9.028;2024-01-10T10:51:43;3.70;91.30
24103;DHT22;12278;53.058;9.028;2024-01-10T10:55:44;4.50;90.90
24103;DHT22;12278;53.058;9.028;2024-01-10T10:59:45;4.70;89.90
24103;DHT22;12278;53.058;9.028;2024-01-10T11:03:46;4.90;86.30
24103;DHT22;12278;53.058;9.028;2024-01-10T11:07:48;5.00;84.90
24103;DHT22;12278;53.058;9.028;2024-01-10T11:12:09;4.70;82.60
24103;DHT22;12278;53.058;9.028;2024-01-10T11:20:13;3.90;88.30
24103;DHT22;12278;53.058;9.028;2024-01-10T11:24:16;4.70;85.30
24103;DHT22;12278;53.058;9.028;2024-01-10T11:28:17;4.90;81.60
24103;DHT22;12278;53.058;9.028;2024-01-10T11:32:21;4.70;83.50
24103;DHT22;12278;53.058;9.028;2024-01-10T11:36:23;4.50;81.60
24103;DHT22;12278;53.058;9.028;2024-01-10T11:40:51;4.40;84.70
24103;DHT22;12278;53.058;9.028;2024-01-10T11:44:53;4.10;82.70
24103;DHT22;12278;53.058;9.028;2024-01-10T11:48:53;3.70;84.30
24103;DHT22;12278;53.058;9.028;2024-01-10T11:52:55;4.30;84.10
24103;DHT22;12278;53.058;9.028;2024-01-10T11:56:55;4.60;82.50
24103;DHT22;12278;53.058;9.028;2024-01-10T12:00:56;4.80;81.60
24103;DHT22;12278;53.058;9.028;2024-01-10T12:04:57;5.00;80.80
24103;DHT22;12278;53.058;9.028;2024-01-10T12:08:57;5.20;80.00
24103;DHT22;12278;53.058;9.028;2024-01-10T12:12:59;5.20;77.50
24103;DHT22;12278;53.058;9.028;2024-01-10T12:17:00;5.20;78.70
24103;DHT22;12278;53.058;9.028;2024-01-10T12:21:01;5.20;77.30
24103;DHT22;12278;53.058;9.028;2024-01-10T12:25:05;5.70;75.90
24103;DHT22;12278;53.058;9.028;2024-01-10T12:29:05;5.10;76.90
24103;DHT22;12278;53.058;9.028;2024-01-10T12:33:08;4.60;77.50
24103;DHT22;12278;53.058;9.028;2024-01-10T12:37:10;4.00;77.40
24103;DHT22;12278;53.058;9.028;2024-01-10T12:41:10;3.70;79.70
24103;DHT22;12278;53.058;9.028;2024-01-10T12:45:21;3.70;82.40
24103;DHT22;12278;53.058;9.028;2024-01-10T12:49:22;3.10;83.90
24103;DHT22;12278;53.058;9.028;2024-01-10T12:53:23;3.20;84.70
24103;DHT22;12278;53.058;9.028;2024-01-10T12:57:24;2.90;86.40
24103;DHT22;12278;53.058;9.028;2024-01-10T13:01:25;2.80;88.60
24103;DHT22;12278;53.058;9.028;2024-01-10T13:05:25;2.90;90.00
24103;DHT22;12278;53.058;9.028;2024-01-10T13:09:26;3.30;86.60
24103;DHT22;12278;53.058;9.028;2024-01-10T13:13:26;3.50;86.70
24103;DHT22;12278;53.058;9.028;2024-01-10T13:17:27;3.40;85.90
24103;DHT22;12278;53.058;9.028;2024-01-10T13:21:27;3.30;85.50
24103;DHT22;12278;53.058;9.028;2024-01-10T13:25:28;3.10;87.40
24103;DHT22;12278;53.058;9.028;2024-01-10T13:29:28;2.90;88.20
24103;DHT22;12278;53.058;9.028;2024-01-10T13:33:29;2.80;90.00
24103;DHT22;12278;53.058;9.028;2024-01-10T13:37:29;2.70;90.30
24103;DHT22;12278;53.058;9.028;2024-01-10T13:41:31;2.20;90.80
24103;DHT22;12278;53.058;9.028;2024-01-10T13:45:32;2.50;91.20
24103;DHT22;12278;53.058;9.028;2024-01-10T13:49:32;2.60;91.10
24103;DHT22;12278;53.058;9.028;2024-01-10T13:53:33;2.80;90.70
24103;DHT22;12278;53.058;9.028;2024-01-10T13:57:33;2.80;90.90
24103;DHT22;12278;53.058;9.028;2024-01-10T14:01:34;2.40;91.30
24103;DHT22;12278;53.058;9.028;2024-01-10T14:05:35;1.80;92.50
24103;DHT22;12278;53.058;9.028;2024-01-10T14:09:36;1.20;94.20
24103;DHT22;12278;53.058;9.028;2024-01-10T14:13:36;0.70;97.00
24103;DHT22;12278;53.058;9.028;2024-01-10T14:17:37;0.40;99.20
24103;DHT22;12278;53.058;9.028;2024-01-10T14:21:37;0.10;99.90
24103;DHT22;12278;53.058;9.028;2024-01-10T14:25:38;0.10;99.90
24103;DHT22;12278;53.058;9.028;2024-01-10T14:29:39;-0.10;99.90
24103;DHT22;12278;53.058;9.028;2024-01-10T14:33:39;0.10;99.90
24103;DHT22;12278;53.058;9.028;2024-01-10T14:37:40;0.40;99.90
24103;DHT22;12278;53.058;9.028;2024-01-10T14:41:41;1.80;99.90
24103;DHT22;12278;53.058;9.028;2024-01-10T14:45:42;2.80;97.60
24103;DHT22;12278;53.058;9.028;2024-01-10T14:49:42;2.90;96.80
24103;DHT22;12278;53.058;9.028;2024-01-10T14:53:43;2.50;96.90
24103;DHT22;12278;53.058;9.028;2024-01-10T14:57:43;1.80;97.70
24103;DHT22;12278;53.058;9.028;2024-01-10T15:01:47;1.30;98.70
24103;DHT22;12278;53.058;9.028;2024-01-10T15:05:47;1.20;99.30
24103;DHT22;12278;53.058;9.028;2024-01-10T15:09:48;0.50;99.90
24103;DHT22;12278;53.058;9.028;2024-01-10T15:13:49;-0.20;99.90
24103;DHT22;12278;53.058;9.028;2024-01-10T15:17:49;-0.70;99.90
24103;DHT22;12278;53.058;9.028;2024-01-10T15:21:50;-1.00;99.90
24103;DHT22;12278;53.058;9.028;2024-01-10T15:25:51;-1.10;99.90
24103;DHT22;12278;53.058;9.028;2024-01-10T15:29:51;-1.40;99.90
24103;DHT22;12278;53.058;9.028;2024-01-10T15:33:52;-1.50;99.90
24103;DHT22;12278;53.058;9.028;2024-01-10T15:37:52;-1.50;99.90
24103;DHT22;12278;53.058;9.028;2024-01-10T15:41:53;-1.70;99.90
24103;DHT22;12278;53.058;9.028;2024-01-10T15:45:54;-1.80;99.90
24103;DHT22;12278;53.058;9.028;2024-01-10T15:49:55;-1.90;99.90
24103;DHT22;12278;53.058;9.028;2024-01-10T15:53:55;-2.00;99.90
24103;DHT22;12278;53.058;9.028;2024-01-10T15:58:00;-2.10;99.90
24103;DHT22;12278;53.058;9.028;2024-01-10T16:02:00;-2.20;99.90
24103;DHT22;12278;53.058;9.028;2024-01-10T16:06:02;-2.20;99.90
24103;DHT22;12278;53.058;9.028;2024-01-10T16:10:03;-2.30;99.90
24103;DHT22;12278;53.058;9.028;2024-01-10T16:14:03;-2.30;99.90
24103;DHT22;12278;53.058;9.028;2024-01-10T16:18:04;-2.40;99.90
24103;DHT22;12278;53.058;9.028;2024-01-10T16:22:05;-2.60;99.90
24103;DHT22;12278;53.058;9.028;2024-01-10T16:26:05;-2.50;99.90
24103;DHT22;12278;53.058;9.028;2024-01-10T16:30:06;-2.50;99.90
24103;DHT22;12278;53.058;9.028;2024-01-10T16:34:07;-2.60;99.90
24103;DHT22;12278;53.058;9.028;2024-01-10T16:38:07;-2.70;99.90
24103;DHT22;12278;53.058;9.028;2024-01-10T16:42:08;-2.60;99.90
24103;DHT22;12278;53.058;9.028;2024-01-10T16:46:13;-2.70;99.90
24103;DHT22;12278;53.058;9.028;2024-01-10T16:50:14;-2.80;99.90
24103;DHT22;12278;53.058;9.028;2024-01-10T16:54:15;-2.70;99.90
24103;DHT22;12278;53.058;9.028;2024-01-10T16:58:15;-2.70;99.90
24103;DHT22;12278;53.058;9.028;2024-01-10T17:02:16;-2.80;99.90
24103;DHT22;12278;53.058;9.028;2024-01-10T17:06:17;-2.90;99.90
24103;DHT22;12278;53.058;9.028;2024-01-10T17:10:17;-2.90;99.90
24103;DHT22;12278;53.058;9.028;2024-01-10T17:14:18;-3.00;99.90
24103;DHT22;12278;53.058;9.028;2024-01-10T17:18:19;-2.90;99.90
24103;DHT22;12278;53.058;9.028;2024-01-10T17:22:19;-3.00;99.90
24103;DHT22;12278;53.058;9.028;2024-01-10T17:26:20;-3.00;99.90
24103;DHT22;12278;53.058;9.028;2024-01-10T17:30:20;-3.10;99.90
24103;DHT22;12278;53.058;9.028;2024-01-10T17:34:21;-3.20;99.90
24103;DHT22;12278;53.058;9.028;2024-01-10T17:38:22;-3.20;99.90
24103;DHT22;12278;53.058;9.028;2024-01-10T17:42:22;-3.20;99.90
24103;DHT22;12278;53.058;9.028;2024-01-10T17:46:23;-3.30;99.90
24103;DHT22;12278;53.058;9.028;2024-01-10T17:50:24;-3.40;99.90
24103;DHT22;12278;53.058;9.028;2024-01-10T17:54:25;-3.30;99.90
24103;DHT22;12278;53.058;9.028;2024-01-10T17:58:26;-3.40;99.90
24103;DHT22;12278;53.058;9.028;2024-01-10T18:02:26;-3.50;99.90
24103;DHT22;12278;53.058;9.028;2024-01-10T18:06:27;-3.60;99.90
24103;DHT22;12278;53.058;9.028;2024-01-10T18:10:28;-3.70;99.90
24103;DHT22;12278;53.058;9.028;2024-01-10T18:14:28;-3.70;99.90
24103;DHT22;12278;53.058;9.028;2024-01-10T18:18:29;-3.70;99.90
24103;DHT22;12278;53.058;9.028;2024-01-10T18:22:33;-3.80;99.90
24103;DHT22;12278;53.058;9.028;2024-01-10T18:26:35;-3.80;99.90
24103;DHT22;12278;53.058;9.028;2024-01-10T18:30:35;-4.00;99.90
24103;DHT22;12278;53.058;9.028;2024-01-10T18:34:36;-4.00;99.90
24103;DHT22;12278;53.058;9.028;2024-01-10T18:38:37;-4.00;99.90
24103;DHT22;12278;53.058;9.028;2024-01-10T18:42:37;-4.20;99.90
24103;DHT22;12278;53.058;9.028;2024-01-10T18:46:38;-4.20;99.90
24103;DHT22;12278;53.058;9.028;2024-01-10T18:50:39;-4.10;99.90
24103;DHT22;12278;53.058;9.028;2024-01-10T18:54:40;-4.00;99.90
24103;DHT22;12278;53.058;9.028;2024-01-10T18:58:41;-3.80;99.90
24103;DHT22;12278;53.058;9.028;2024-01-10T19:02:42;-3.80;99.90
24103;DHT22;12278;53.058;9.028;2024-01-10T19:06:43;-3.80;99.90
24103;DHT22;12278;53.058;9.028;2024-01-10T19:10:45;-3.80;99.90
24103;DHT22;12278;53.058;9.028;2024-01-10T19:14:46;-3.90;99.90
24103;DHT22;12278;53.058;9.028;2024-01-10T19:18:47;-4.10;99.90
24103;DHT22;12278;53.058;9.028;2024-01-10T19:22:47;-4.20;99.90
24103;DHT22;12278;53.058;9.028;2024-01-10T19:26:49;-4.20;99.90
24103;DHT22;12278;53.058;9.028;2024-01-10T19:30:49;-4.20;99.90
24103;DHT22;12278;53.058;9.028;2024-01-10T19:34:50;-4.20;99.90
24103;DHT22;12278;53.058;9.028;2024-01-10T19:38:51;-4.10;99.90
24103;DHT22;12278;53.058;9.028;2024-01-10T19:42:53;-4.00;99.90
24103;DHT22;12278;53.058;9.028;2024-01-10T19:46:54;-3.90;99.90
24103;DHT22;12278;53.058;9.028;2024-01-10T19:50:54;-4.00;99.90
24103;DHT22;12278;53.058;9.028;2024-01-10T19:54:55;-4.00;99.90
24103;DHT22;12278;53.058;9.028;2024-01-10T19:58:56;-4.20;99.90
24103;DHT22;12278;53.058;9.028;2024-01-10T20:02:56;-4.20;99.90
24103;DHT22;12278;53.058;9.028;2024-01-10T20:06:57;-4.30;99.90
24103;DHT22;12278;53.058;9.028;2024-01-10T20:10:59;-4.30;99.90
24103;DHT22;12278;53.058;9.028;2024-01-10T20:15:00;-4.30;99.90
24103;DHT22;12278;53.058;9.028;2024-01-10T20:19:01;-4.40;99.90
24103;DHT22;12278;53.058;9.028;2024-01-10T20:23:02;-4.40;99.90
24103;DHT22;12278;53.058;9.028;2024-01-10T20:27:03;-4.50;99.90
24103;DHT22;12278;53.058;9.028;2024-01-10T20:31:04;-4.60;99.90
24103;DHT22;12278;53.058;9.028;2024-01-10T20:35:06;-4.60;99.90
24103;DHT22;12278;53.058;9.028;2024-01-10T20:39:07;-4.60;99.90
24103;DHT22;12278;53.058;9.028;2024-01-10T20:43:07;-4.70;99.90
24103;DHT22;12278;53.058;9.028;2024-01-10T20:47:08;-4.80;99.90
24103;DHT22;12278;53.058;9.028;2024-01-10T20:51:09;-4.80;99.90
24103;DHT22;12278;53.058;9.028;2024-01-10T20:55:10;-4.90;99.90
24103;DHT22;12278;53.058;9.028;2024-01-10T20:59:10;-5.10;99.90
24103;DHT22;12278;53.058;9.028;2024-01-10T21:03:11;-5.10;99.90
24103;DHT22;12278;53.058;9.028;2024-01-10T21:07:11;-5.10;99.90
24103;DHT22;12278;53.058;9.028;2024-01-10T21:11:12;-5.20;99.90
24103;DHT22;12278;53.058;9.028;2024-01-10T21:15:13;-5.10;99.90
24103;DHT22;12278;53.058;9.028;2024-01-10T21:19:13;-4.90;99.90
24103;DHT22;12278;53.058;9.028;2024-01-10T21:23:14;-4.90;99.90
24103;DHT22;12278;53.058;9.028;2024-01-10T21:27:15;-4.80;99.90
24103;DHT22;12278;53.058;9.028;2024-01-10T21:31:15;-4.80;99.90
24103;DHT22;12278;53.058;9.028;2024-01-10T21:35:16;-4.70;99.90
24103;DHT22;12278;53.058;9.028;2024-01-10T21:39:16;-4.70;99.90
24103;DHT22;12278;53.058;9.028;2024-01-10T21:43:17;-4.70;99.90
24103;DHT22;12278;53.058;9.028;2024-01-10T21:47:19;-4.70;99.90
24103;DHT22;12278;53.058;9.028;2024-01-10T21:51:19;-4.80;99.90
24103;DHT22;12278;53.058;9.028;2024-01-10T21:55:20;-4.80;99.90
24103;DHT22;12278;53.058;9.028;2024-01-10T21:59:21;-4.80;99.90
24103;DHT22;12278;53.058;9.028;2024-01-10T22:03:22;-4.80;99.90
24103;DHT22;12278;53.058;9.028;2024-01-10T22:07:22;-4.90;99.90
24103;DHT22;12278;53.058;9.028;2024-01-10T22:11:23;-4.90;99.90
24103;DHT22;12278;53.058;9.028;2024-01-10T22:15:24;-4.80;99.90
24103;DHT22;12278;53.058;9.028;2024-01-10T22:19:26;-4.80;99.90
24103;DHT22;12278;53.058;9.028;2024-01-10T22:23:27;-4.80;99.90
24103;DHT22;12278;53.058;9.028;2024-01-10T22:27:27;-4.90;99.90
24103;DHT22;12278;53.058;9.028;2024-01-10T22:31:28;-4.90;99.90
24103;DHT22;12278;53.058;9.028;2024-01-10T22:35:29;-4.90;99.90
24103;DHT22;12278;53.058;9.028;2024-01-10T22:39:29;-4.90;99.90
24103;DHT22;12278;53.058;9.028;2024-01-10T22:43:30;-4.90;99.90
24103;DHT22;12278;53.058;9.028;2024-01-10T22:47:31;-4.90;99.90
24103;DHT22;12278;53.058;9.028;2024-01-10T22:51:31;-5.10;99.90
24103;DHT22;12278;53.058;9.028;2024-01-10T22:55:32;-5.20;99.90
24103;DHT22;12278;53.058;9.028;2024-01-10T22:59:32;-5.20;99.90
24103;DHT22;12278;53.058;9.028;2024-01-10T23:03:33;-5.30;99.90
24103;DHT22;12278;53.058;9.028;2024-01-10T23:07:36;-5.30;99.90
24103;DHT22;12278;53.058;9.028;2024-01-10T23:11:37;-5.50;99.90
24103;DHT22;12278;53.058;9.028;2024-01-10T23:15:39;-5.60;99.90
24103;DHT22;12278;53.058;9.028;2024-01-10T23:19:39;-5.70;99.90
24103;DHT22;12278;53.058;9.028;2024-01-10T23:23:40;-5.60;99.90
24103;DHT22;12278;53.058;9.028;2024-01-10T23:27:43;-5.60;99.90
24103;DHT22;12278;53.058;9.028;2024-01-10T23:31:49;-5.60;99.90
24103;DHT22;12278;53.058;9.028;2024-01-10T23:35:51;-5.60;99.90
24103;DHT22;12278;53.058;9.028;2024-01-10T23:39:52;-5.60;99.90
24103;DHT22;12278;53.058;9.028;2024-01-10T23:43:52;-5.60;99.90
24103;DHT22;12278;53.058;9.028;2024-01-10T23:47:53;-5.70;99.90
24103;DHT22;12278;53.058;9.028;2024-01-10T23:51:56;-5.70;99.90
24103;DHT22;12278;53.058;9.028;2024-01-10T23:55:57;-5.70;99.90
24103;DHT22;12278;53.058;9.028;2024-01-10T23:59:58;-5.70;99.90
